sensor_id;sensor_type;location;lat;lon;timestamp;pressure;altitude;pressure_sealevel;temperature;humidity
11692;BME280;33659;42.672;23.354;2023-05-11T00:00:50;94570.47;;;9.94;73.30
11692;BME280;33659;42.672;23.354;2023-05-11T00:03:17;94566.84;;;9.87;73.77
11692;BME280;33659;42.672;23.354;2023-05-11T00:05:46;94571.41;;;9.90;73.79
11692;BME280;33659;42.672;23.354;2023-05-11T00:08:13;94572.31;;;9.94;73.88
11692;BME280;33659;42.672;23.354;2023-05-11T00:10:40;94568.25;;;10.05;73.30
11692;BME280;33659;42.672;23.354;2023-05-11T00:13:08;94570.03;;;10.13;73.20
11692;BME280;33659;42.672;23.354;2023-05-11T00:15:35;94567.25;;;10.18;72.54
11692;BME280;33659;42.672;23.354;2023-05-11T00:18:01;94573.03;;;10.24;72.54
11692;BME280;33659;42.672;23.354;2023-05-11T00:20:28;94574.38;;;10.30;72.82
11692;BME280;33659;42.672;23.354;2023-05-11T00:22:54;94570.50;;;10.36;72.25
11692;BME280;33659;42.672;23.354;2023-05-11T00:25:21;94571.72;;;10.39;72.17
11692;BME280;33659;42.672;23.354;2023-05-11T00:27:48;94574.44;;;10.42;71.70
11692;BME280;33659;42.672;23.354;2023-05-11T00:30:16;94572.72;;;10.46;71.40
11692;BME280;33659;42.672;23.354;2023-05-11T00:32:43;94574.13;;;10.44;71.12
11692;BME280;33659;42.672;23.354;2023-05-11T00:35:11;94557.94;;;10.29;70.70
11692;BME280;33659;42.672;23.354;2023-05-11T00:37:37;94572.03;;;10.37;70.68
11692;BME280;33659;42.672;23.354;2023-05-11T00:40:05;94575.94;;;10.31;70.74
11692;BME280;33659;42.672;23.354;2023-05-11T00:42:32;94555.41;;;10.21;70.57
11692;BME280;33659;42.672;23.354;2023-05-11T00:44:59;94581.66;;;10.24;70.71
11692;BME280;33659;42.672;23.354;2023-05-11T00:47:27;94578.56;;;10.22;70.68
11692;BME280;33659;42.672;23.354;2023-05-11T00:49:54;94577.97;;;10.25;70.80
11692;BME280;33659;42.672;23.354;2023-05-11T00:52:21;94575.94;;;10.22;70.49
11692;BME280;33659;42.672;23.354;2023-05-11T00:54:47;94578.88;;;10.21;70.64
11692;BME280;33659;42.672;23.354;2023-05-11T00:57:15;94571.81;;;10.21;70.73
11692;BME280;33659;42.672;23.354;2023-05-11T00:59:41;94578.13;;;10.20;70.45
11692;BME280;33659;42.672;23.354;2023-05-11T01:02:08;94577.69;;;10.18;70.39
11692;BME280;33659;42.672;23.354;2023-05-11T01:04:37;94576.63;;;10.11;70.29
11692;BME280;33659;42.672;23.354;2023-05-11T01:07:08;94569.66;;;10.02;70.23
11692;BME280;33659;42.672;23.354;2023-05-11T01:09:45;94584.28;;;9.95;70.37
11692;BME280;33659;42.672;23.354;2023-05-11T01:12:26;94574.41;;;9.80;71.39
11692;BME280;33659;42.672;23.354;2023-05-11T01:15:00;94580.13;;;9.73;71.54
11692;BME280;33659;42.672;23.354;2023-05-11T01:17:34;94584.13;;;9.70;72.06
11692;BME280;33659;42.672;23.354;2023-05-11T01:20:05;94572.94;;;9.70;72.54
11692;BME280;33659;42.672;23.354;2023-05-11T01:22:47;94563.16;;;9.58;72.63
11692;BME280;33659;42.672;23.354;2023-05-11T01:25:30;94576.13;;;9.75;72.96
11692;BME280;33659;42.672;23.354;2023-05-11T01:28:25;94577.91;;;9.84;72.43
11692;BME280;33659;42.672;23.354;2023-05-11T01:30:59;94576.13;;;9.75;73.19
11692;BME280;33659;42.672;23.354;2023-05-11T01:33:30;94579.91;;;9.57;73.94
11692;BME280;33659;42.672;23.354;2023-05-11T01:36:01;94573.50;;;9.46;74.51
11692;BME280;33659;42.672;23.354;2023-05-11T01:38:31;94568.16;;;9.42;74.99
11692;BME280;33659;42.672;23.354;2023-05-11T01:40:59;94567.84;;;9.44;74.84
11692;BME280;33659;42.672;23.354;2023-05-11T01:43:27;94573.88;;;9.36;75.31
11692;BME280;33659;42.672;23.354;2023-05-11T01:45:59;94575.72;;;9.27;75.67
11692;BME280;33659;42.672;23.354;2023-05-11T01:48:29;94576.84;;;9.17;75.61
11692;BME280;33659;42.672;23.354;2023-05-11T01:51:00;94570.00;;;9.04;76.60
11692;BME280;33659;42.672;23.354;2023-05-11T01:53:31;94569.72;;;8.97;76.47
11692;BME280;33659;42.672;23.354;2023-05-11T01:55:59;94579.72;;;8.86;77.22
11692;BME280;33659;42.672;23.354;2023-05-11T01:58:28;94578.91;;;8.94;76.83
11692;BME280;33659;42.672;23.354;2023-05-11T02:00:57;94583.84;;;8.87;76.60
11692;BME280;33659;42.672;23.354;2023-05-11T02:03:28;94572.97;;;8.85;76.59
11692;BME280;33659;42.672;23.354;2023-05-11T02:05:57;94575.41;;;8.81;76.23
11692;BME280;33659;42.672;23.354;2023-05-11T02:08:26;94580.19;;;8.79;76.78
11692;BME280;33659;42.672;23.354;2023-05-11T02:10:55;94579.56;;;8.82;76.12
11692;BME280;33659;42.672;23.354;2023-05-11T02:13:23;94574.38;;;8.74;76.44
11692;BME280;33659;42.672;23.354;2023-05-11T02:15:56;94563.06;;;8.70;75.78
11692;BME280;33659;42.672;23.354;2023-05-11T02:18:24;94578.69;;;8.70;76.00
11692;BME280;33659;42.672;23.354;2023-05-11T02:20:50;94574.38;;;8.74;75.58
11692;BME280;33659;42.672;23.354;2023-05-11T02:23:19;94571.44;;;8.75;75.28
11692;BME280;33659;42.672;23.354;2023-05-11T02:25:47;94576.66;;;8.84;75.57
11692;BME280;33659;42.672;23.354;2023-05-11T02:28:15;94569.13;;;8.91;74.91
11692;BME280;33659;42.672;23.354;2023-05-11T02:30:45;94572.94;;;8.93;74.16
11692;BME280;33659;42.672;23.354;2023-05-11T02:33:17;94570.16;;;8.99;74.74
11692;BME280;33659;42.672;23.354;2023-05-11T02:35:45;94563.44;;;8.98;74.31
11692;BME280;33659;42.672;23.354;2023-05-11T02:38:13;94566.75;;;9.15;73.97
11692;BME280;33659;42.672;23.354;2023-05-11T02:40:45;94560.09;;;9.27;73.70
11692;BME280;33659;42.672;23.354;2023-05-11T02:43:16;94572.75;;;9.45;72.99
11692;BME280;33659;42.672;23.354;2023-05-11T02:45:45;94567.03;;;9.52;72.27
11692;BME280;33659;42.672;23.354;2023-05-11T02:48:20;94575.59;;;9.61;71.92
11692;BME280;33659;42.672;23.354;2023-05-11T02:50:50;94568.22;;;9.63;70.82
11692;BME280;33659;42.672;23.354;2023-05-11T02:53:19;94566.84;;;9.57;70.92
11692;BME280;33659;42.672;23.354;2023-05-11T02:55:47;94563.63;;;9.60;70.69
11692;BME280;33659;42.672;23.354;2023-05-11T02:58:17;94570.22;;;9.58;70.90
11692;BME280;33659;42.672;23.354;2023-05-11T03:00:44;94568.38;;;9.58;71.12
11692;BME280;33659;42.672;23.354;2023-05-11T03:03:11;94567.13;;;9.64;70.90
11692;BME280;33659;42.672;23.354;2023-05-11T03:05:41;94563.91;;;9.67;70.87
11692;BME280;33659;42.672;23.354;2023-05-11T03:08:08;94565.53;;;9.72;70.57
11692;BME280;33659;42.672;23.354;2023-05-11T03:10:35;94566.19;;;9.69;70.42
11692;BME280;33659;42.672;23.354;2023-05-11T03:13:02;94561.28;;;9.67;70.25
11692;BME280;33659;42.672;23.354;2023-05-11T03:15:30;94562.09;;;9.59;70.64
11692;BME280;33659;42.672;23.354;2023-05-11T03:17:57;94561.22;;;9.46;70.94
11692;BME280;33659;42.672;23.354;2023-05-11T03:20:26;94551.63;;;9.38;70.94
11692;BME280;33659;42.672;23.354;2023-05-11T03:22:54;94562.31;;;9.45;70.80
11692;BME280;33659;42.672;23.354;2023-05-11T03:25:22;94569.25;;;9.41;71.01
11692;BME280;33659;42.672;23.354;2023-05-11T03:27:50;94558.22;;;9.36;71.29
11692;BME280;33659;42.672;23.354;2023-05-11T03:30:18;94578.31;;;9.35;71.78
11692;BME280;33659;42.672;23.354;2023-05-11T03:32:45;94573.59;;;9.29;71.94
11692;BME280;33659;42.672;23.354;2023-05-11T03:35:12;94575.56;;;9.32;71.57
11692;BME280;33659;42.672;23.354;2023-05-11T03:37:40;94574.47;;;9.33;71.95
11692;BME280;33659;42.672;23.354;2023-05-11T03:40:11;94567.13;;;9.35;71.88
11692;BME280;33659;42.672;23.354;2023-05-11T03:42:41;94569.09;;;9.38;72.09
11692;BME280;33659;42.672;23.354;2023-05-11T03:45:12;94556.88;;;9.30;72.26
11692;BME280;33659;42.672;23.354;2023-05-11T03:47:42;94585.81;;;9.37;72.57
11692;BME280;33659;42.672;23.354;2023-05-11T03:50:11;94572.06;;;9.28;72.71
11692;BME280;33659;42.672;23.354;2023-05-11T03:52:39;94574.63;;;9.36;73.06
11692;BME280;33659;42.672;23.354;2023-05-11T03:55:09;94579.78;;;9.45;72.48
11692;BME280;33659;42.672;23.354;2023-05-11T03:57:36;94577.94;;;9.45;72.56
11692;BME280;33659;42.672;23.354;2023-05-11T04:00:04;94586.72;;;9.41;72.96
11692;BME280;33659;42.672;23.354;2023-05-11T04:02:33;94569.53;;;9.40;72.87
11692;BME280;33659;42.672;23.354;2023-05-11T04:05:00;94587.50;;;9.33;73.41
11692;BME280;33659;42.672;23.354;2023-05-11T04:07:31;94580.75;;;9.40;73.48
11692;BME280;33659;42.672;23.354;2023-05-11T04:09:58;94590.69;;;9.47;72.90
11692;BME280;33659;42.672;23.354;2023-05-11T04:12:26;94582.09;;;9.46;73.08
11692;BME280;33659;42.672;23.354;2023-05-11T04:14:52;94588.25;;;9.42;73.11
11692;BME280;33659;42.672;23.354;2023-05-11T04:17:19;94583.53;;;9.35;73.75
11692;BME280;33659;42.672;23.354;2023-05-11T04:19:46;94585.19;;;9.40;73.71
11692;BME280;33659;42.672;23.354;2023-05-11T04:22:12;94596.56;;;9.35;73.76
11692;BME280;33659;42.672;23.354;2023-05-11T04:24:39;94588.75;;;9.35;74.42
11692;BME280;33659;42.672;23.354;2023-05-11T04:27:06;94599.94;;;9.27;74.20
11692;BME280;33659;42.672;23.354;2023-05-11T04:29:34;94599.66;;;9.29;74.83
11692;BME280;33659;42.672;23.354;2023-05-11T04:32:01;94600.75;;;9.28;74.68
11692;BME280;33659;42.672;23.354;2023-05-11T04:34:27;94593.09;;;9.22;75.24
11692;BME280;33659;42.672;23.354;2023-05-11T04:36:54;94601.88;;;9.09;75.24
11692;BME280;33659;42.672;23.354;2023-05-11T04:39:21;94599.88;;;9.15;75.35
11692;BME280;33659;42.672;23.354;2023-05-11T04:41:47;94590.97;;;9.07;75.63
11692;BME280;33659;42.672;23.354;2023-05-11T04:44:14;94606.13;;;9.14;75.83
11692;BME280;33659;42.672;23.354;2023-05-11T04:46:42;94595.56;;;9.10;76.02
11692;BME280;33659;42.672;23.354;2023-05-11T04:49:09;94602.75;;;9.13;75.76
11692;BME280;33659;42.672;23.354;2023-05-11T04:51:36;94596.78;;;9.13;76.07
11692;BME280;33659;42.672;23.354;2023-05-11T04:54:03;94603.81;;;9.21;75.87
11692;BME280;33659;42.672;23.354;2023-05-11T04:56:30;94609.47;;;9.23;75.70
11692;BME280;33659;42.672;23.354;2023-05-11T04:58:57;94602.88;;;9.26;75.64
11692;BME280;33659;42.672;23.354;2023-05-11T05:01:23;94610.09;;;9.29;75.78
11692;BME280;33659;42.672;23.354;2023-05-11T05:03:51;94597.81;;;9.20;75.90
11692;BME280;33659;42.672;23.354;2023-05-11T05:06:18;94618.66;;;9.20;76.20
11692;BME280;33659;42.672;23.354;2023-05-11T05:08:45;94607.47;;;9.20;75.98
11692;BME280;33659;42.672;23.354;2023-05-11T05:11:11;94610.56;;;9.22;76.12
11692;BME280;33659;42.672;23.354;2023-05-11T05:13:38;94610.72;;;9.17;76.51
11692;BME280;33659;42.672;23.354;2023-05-11T05:16:05;94619.03;;;9.10;76.36
11692;BME280;33659;42.672;23.354;2023-05-11T05:18:32;94628.38;;;9.11;76.52
11692;BME280;33659;42.672;23.354;2023-05-11T05:21:00;94622.22;;;9.16;76.67
11692;BME280;33659;42.672;23.354;2023-05-11T05:23:27;94634.94;;;9.17;76.70
11692;BME280;33659;42.672;23.354;2023-05-11T05:25:54;94630.03;;;9.16;76.54
11692;BME280;33659;42.672;23.354;2023-05-11T05:28:20;94630.66;;;9.13;76.82
11692;BME280;33659;42.672;23.354;2023-05-11T05:30:47;94615.81;;;9.05;76.94
11692;BME280;33659;42.672;23.354;2023-05-11T05:33:13;94623.59;;;9.13;76.88
11692;BME280;33659;42.672;23.354;2023-05-11T05:35:40;94622.22;;;9.16;76.55
11692;BME280;33659;42.672;23.354;2023-05-11T05:38:09;94634.31;;;9.20;76.90
11692;BME280;33659;42.672;23.354;2023-05-11T05:40:36;94628.03;;;9.13;77.01
11692;BME280;33659;42.672;23.354;2023-05-11T05:43:03;94627.16;;;9.09;77.36
11692;BME280;33659;42.672;23.354;2023-05-11T05:45:30;94628.53;;;9.06;77.18
11692;BME280;33659;42.672;23.354;2023-05-11T05:47:57;94635.28;;;8.99;77.18
11692;BME280;33659;42.672;23.354;2023-05-11T05:50:25;94631.28;;;9.01;77.75
11692;BME280;33659;42.672;23.354;2023-05-11T05:52:51;94632.97;;;9.06;77.21
11692;BME280;33659;42.672;23.354;2023-05-11T05:55:19;94638.19;;;9.06;77.35
11692;BME280;33659;42.672;23.354;2023-05-11T05:57:46;94632.84;;;9.02;77.87
11692;BME280;33659;42.672;23.354;2023-05-11T06:00:14;94646.13;;;9.18;77.22
11692;BME280;33659;42.672;23.354;2023-05-11T06:02:41;94642.31;;;9.15;76.97
11692;BME280;33659;42.672;23.354;2023-05-11T06:05:09;94652.53;;;9.20;77.07
11692;BME280;33659;42.672;23.354;2023-05-11T06:07:35;94656.81;;;9.25;76.89
11692;BME280;33659;42.672;23.354;2023-05-11T06:10:03;94653.91;;;9.27;77.24
11692;BME280;33659;42.672;23.354;2023-05-11T06:12:31;94643.47;;;9.35;76.96
11692;BME280;33659;42.672;23.354;2023-05-11T06:14:58;94652.50;;;9.38;76.10
11692;BME280;33659;42.672;23.354;2023-05-11T06:17:24;94652.94;;;9.40;76.25
11692;BME280;33659;42.672;23.354;2023-05-11T06:19:52;94659.72;;;9.41;76.26
11692;BME280;33659;42.672;23.354;2023-05-11T06:22:19;94659.72;;;9.41;76.60
11692;BME280;33659;42.672;23.354;2023-05-11T06:24:46;94654.06;;;9.30;76.80
11692;BME280;33659;42.672;23.354;2023-05-11T06:27:12;94661.84;;;9.39;76.20
11692;BME280;33659;42.672;23.354;2023-05-11T06:29:40;94662.47;;;9.36;76.04
11692;BME280;33659;42.672;23.354;2023-05-11T06:32:07;94669.53;;;9.35;76.13
11692;BME280;33659;42.672;23.354;2023-05-11T06:34:34;94666.34;;;9.30;76.43
11692;BME280;33659;42.672;23.354;2023-05-11T06:37:01;94675.38;;;9.23;76.11
11692;BME280;33659;42.672;23.354;2023-05-11T06:39:27;94679.06;;;9.22;76.79
11692;BME280;33659;42.672;23.354;2023-05-11T06:41:54;94669.59;;;9.09;76.92
11692;BME280;33659;42.672;23.354;2023-05-11T06:44:21;94674.50;;;9.11;76.82
11692;BME280;33659;42.672;23.354;2023-05-11T06:46:49;94678.16;;;9.01;76.74
11692;BME280;33659;42.672;23.354;2023-05-11T06:49:15;94670.84;;;8.86;77.46
11692;BME280;33659;42.672;23.354;2023-05-11T06:51:42;94674.84;;;8.75;78.28
11692;BME280;33659;42.672;23.354;2023-05-11T06:54:09;94670.56;;;8.70;78.68
11692;BME280;33659;42.672;23.354;2023-05-11T06:56:35;94671.00;;;8.81;79.01
11692;BME280;33659;42.672;23.354;2023-05-11T06:59:02;94677.44;;;8.92;78.19
11692;BME280;33659;42.672;23.354;2023-05-11T07:01:29;94675.41;;;9.06;77.75
11692;BME280;33659;42.672;23.354;2023-05-11T07:03:57;94676.66;;;9.09;77.33
11692;BME280;33659;42.672;23.354;2023-05-11T07:06:24;94672.03;;;9.06;77.25
11692;BME280;33659;42.672;23.354;2023-05-11T07:08:52;94684.00;;;8.98;77.62
11692;BME280;33659;42.672;23.354;2023-05-11T07:11:18;94662.13;;;8.73;77.26
11692;BME280;33659;42.672;23.354;2023-05-11T07:13:46;94670.84;;;8.60;78.79
11692;BME280;33659;42.672;23.354;2023-05-11T07:16:12;94670.41;;;8.58;78.76
11692;BME280;33659;42.672;23.354;2023-05-11T07:18:39;94678.84;;;8.63;79.07
11692;BME280;33659;42.672;23.354;2023-05-11T07:21:07;94676.22;;;8.72;78.49
11692;BME280;33659;42.672;23.354;2023-05-11T07:23:34;94678.97;;;8.67;78.33
11692;BME280;33659;42.672;23.354;2023-05-11T07:26:00;94672.53;;;8.73;78.55
11692;BME280;33659;42.672;23.354;2023-05-11T07:28:33;94686.47;;;8.77;78.55
11692;BME280;33659;42.672;23.354;2023-05-11T07:30:59;94675.59;;;8.84;77.98
11692;BME280;33659;42.672;23.354;2023-05-11T07:33:26;94673.31;;;8.74;76.64
11692;BME280;33659;42.672;23.354;2023-05-11T07:35:53;94679.91;;;8.71;77.58
11692;BME280;33659;42.672;23.354;2023-05-11T07:38:21;94678.81;;;8.72;77.18
11692;BME280;33659;42.672;23.354;2023-05-11T07:40:48;94681.56;;;8.84;77.20
11692;BME280;33659;42.672;23.354;2023-05-11T07:43:15;94665.16;;;8.92;76.60
11692;BME280;33659;42.672;23.354;2023-05-11T07:45:41;94669.78;;;8.87;75.98
11692;BME280;33659;42.672;23.354;2023-05-11T07:48:08;94683.53;;;9.13;76.39
11692;BME280;33659;42.672;23.354;2023-05-11T07:50:35;94674.44;;;9.37;74.63
11692;BME280;33659;42.672;23.354;2023-05-11T07:53:02;94682.81;;;9.60;74.48
11692;BME280;33659;42.672;23.354;2023-05-11T07:55:30;94674.03;;;9.64;74.23
11692;BME280;33659;42.672;23.354;2023-05-11T07:57:57;94682.00;;;9.59;73.48
11692;BME280;33659;42.672;23.354;2023-05-11T08:00:24;94672.06;;;9.53;73.14
11692;BME280;33659;42.672;23.354;2023-05-11T08:02:51;94683.63;;;9.81;72.14
11692;BME280;33659;42.672;23.354;2023-05-11T08:05:18;94687.59;;;9.87;71.40
11692;BME280;33659;42.672;23.354;2023-05-11T08:07:45;94677.25;;;9.99;71.24
11692;BME280;33659;42.672;23.354;2023-05-11T08:10:12;94683.56;;;9.98;69.68
11692;BME280;33659;42.672;23.354;2023-05-11T08:12:40;94682.78;;;9.98;69.24
11692;BME280;33659;42.672;23.354;2023-05-11T08:15:08;94687.97;;;9.98;69.81
11692;BME280;33659;42.672;23.354;2023-05-11T08:17:36;94674.56;;;9.87;70.31
11692;BME280;33659;42.672;23.354;2023-05-11T08:20:03;94686.72;;;9.74;70.36
11692;BME280;33659;42.672;23.354;2023-05-11T08:22:30;94669.78;;;9.51;70.31
11692;BME280;33659;42.672;23.354;2023-05-11T08:24:57;94691.31;;;9.77;70.25
11692;BME280;33659;42.672;23.354;2023-05-11T08:27:24;94684.16;;;9.95;70.10
11692;BME280;33659;42.672;23.354;2023-05-11T08:29:52;94675.94;;;10.14;69.71
11692;BME280;33659;42.672;23.354;2023-05-11T08:32:18;94684.66;;;10.27;68.74
11692;BME280;33659;42.672;23.354;2023-05-11T08:34:45;94680.09;;;10.45;67.51
11692;BME280;33659;42.672;23.354;2023-05-11T08:37:12;94691.53;;;10.52;67.97
11692;BME280;33659;42.672;23.354;2023-05-11T08:39:38;94691.94;;;10.63;67.87
11692;BME280;33659;42.672;23.354;2023-05-11T08:42:06;94687.78;;;10.62;66.80
11692;BME280;33659;42.672;23.354;2023-05-11T08:44:34;94694.97;;;10.44;66.42
11692;BME280;33659;42.672;23.354;2023-05-11T08:47:04;94679.38;;;10.06;67.98
11692;BME280;33659;42.672;23.354;2023-05-11T08:49:31;94690.06;;;10.13;68.29
11692;BME280;33659;42.672;23.354;2023-05-11T08:51:58;94684.31;;;9.99;68.32
11692;BME280;33659;42.672;23.354;2023-05-11T08:54:27;94667.41;;;10.05;68.94
11692;BME280;33659;42.672;23.354;2023-05-11T08:56:55;94686.34;;;10.23;68.52
11692;BME280;33659;42.672;23.354;2023-05-11T08:59:23;94677.47;;;10.15;68.43
11692;BME280;33659;42.672;23.354;2023-05-11T09:01:51;94668.66;;;10.28;67.99
11692;BME280;33659;42.672;23.354;2023-05-11T09:04:21;94677.00;;;10.43;68.21
11692;BME280;33659;42.672;23.354;2023-05-11T09:06:50;94677.03;;;10.64;68.65
11692;BME280;33659;42.672;23.354;2023-05-11T09:09:17;94676.13;;;10.80;68.55
11692;BME280;33659;42.672;23.354;2023-05-11T09:11:44;94674.25;;;11.02;68.16
11692;BME280;33659;42.672;23.354;2023-05-11T09:14:11;94669.41;;;11.25;67.01
11692;BME280;33659;42.672;23.354;2023-05-11T09:16:38;94667.59;;;11.37;66.81
11692;BME280;33659;42.672;23.354;2023-05-11T09:19:05;94680.81;;;11.53;65.94
11692;BME280;33659;42.672;23.354;2023-05-11T09:21:33;94662.81;;;11.52;65.84
11692;BME280;33659;42.672;23.354;2023-05-11T09:24:01;94681.78;;;11.61;66.04
11692;BME280;33659;42.672;23.354;2023-05-11T09:26:32;94673.63;;;11.62;66.36
11692;BME280;33659;42.672;23.354;2023-05-11T09:28:59;94669.47;;;11.61;66.29
11692;BME280;33659;42.672;23.354;2023-05-11T09:31:36;94678.28;;;11.57;66.25
11692;BME280;33659;42.672;23.354;2023-05-11T09:34:14;94671.22;;;11.57;66.42
11692;BME280;33659;42.672;23.354;2023-05-11T09:36:43;94679.38;;;11.56;66.34
11692;BME280;33659;42.672;23.354;2023-05-11T09:39:11;94680.84;;;11.32;67.42
11692;BME280;33659;42.672;23.354;2023-05-11T09:41:38;94683.69;;;11.27;67.19
11692;BME280;33659;42.672;23.354;2023-05-11T09:44:09;94670.41;;;11.32;67.80
11692;BME280;33659;42.672;23.354;2023-05-11T09:46:38;94670.41;;;11.32;67.59
11692;BME280;33659;42.672;23.354;2023-05-11T09:49:06;94678.91;;;11.29;67.37
11692;BME280;33659;42.672;23.354;2023-05-11T09:51:35;94677.88;;;11.09;67.92
11692;BME280;33659;42.672;23.354;2023-05-11T09:54:19;94661.28;;;11.05;67.92
11692;BME280;33659;42.672;23.354;2023-05-11T09:56:48;94662.66;;;11.24;68.01
11692;BME280;33659;42.672;23.354;2023-05-11T09:59:16;94659.94;;;11.32;67.27
11692;BME280;33659;42.672;23.354;2023-05-11T10:01:43;94654.84;;;11.36;66.94
11692;BME280;33659;42.672;23.354;2023-05-11T10:04:09;94652.88;;;11.45;67.40
11692;BME280;33659;42.672;23.354;2023-05-11T10:06:47;94651.38;;;11.69;66.60
11692;BME280;33659;42.672;23.354;2023-05-11T10:09:18;94650.28;;;11.70;66.09
11692;BME280;33659;42.672;23.354;2023-05-11T10:11:45;94649.88;;;11.68;65.71
11692;BME280;33659;42.672;23.354;2023-05-11T10:14:12;94649.25;;;11.25;66.76
11692;BME280;33659;42.672;23.354;2023-05-11T10:16:40;94641.75;;;10.91;68.38
11692;BME280;33659;42.672;23.354;2023-05-11T10:19:07;94635.03;;;10.90;68.70
11692;BME280;33659;42.672;23.354;2023-05-11T10:21:34;94624.59;;;11.02;68.62
11692;BME280;33659;42.672;23.354;2023-05-11T10:24:02;94641.34;;;10.89;67.71
11692;BME280;33659;42.672;23.354;2023-05-11T10:26:32;94638.78;;;10.80;69.20
11692;BME280;33659;42.672;23.354;2023-05-11T10:28:59;94633.69;;;10.83;68.90
11692;BME280;33659;42.672;23.354;2023-05-11T10:31:27;94635.91;;;11.06;69.01
11692;BME280;33659;42.672;23.354;2023-05-11T10:33:54;94630.28;;;11.16;67.84
11692;BME280;33659;42.672;23.354;2023-05-11T10:36:23;94618.84;;;11.08;68.13
11692;BME280;33659;42.672;23.354;2023-05-11T10:38:50;94617.44;;;11.23;68.03
11692;BME280;33659;42.672;23.354;2023-05-11T10:41:29;94618.38;;;11.06;67.75
11692;BME280;33659;42.672;23.354;2023-05-11T10:44:22;94616.66;;;11.10;67.88
11692;BME280;33659;42.672;23.354;2023-05-11T10:47:05;94621.38;;;11.17;67.70
11692;BME280;33659;42.672;23.354;2023-05-11T10:50:01;94620.31;;;11.43;67.13
11692;BME280;33659;42.672;23.354;2023-05-11T10:52:45;94623.81;;;11.47;66.65
11692;BME280;33659;42.672;23.354;2023-05-11T10:55:19;94619.50;;;11.18;66.98
11692;BME280;33659;42.672;23.354;2023-05-11T10:58:05;94626.94;;;11.28;67.38
11692;BME280;33659;42.672;23.354;2023-05-11T11:01:25;94625.28;;;11.11;67.61
11692;BME280;33659;42.672;23.354;2023-05-11T11:03:57;94614.84;;;11.23;68.30
11692;BME280;33659;42.672;23.354;2023-05-11T11:06:26;94612.66;;;11.25;66.85
11692;BME280;33659;42.672;23.354;2023-05-11T11:08:55;94625.47;;;11.06;66.96
11692;BME280;33659;42.672;23.354;2023-05-11T11:11:33;94615.69;;;11.03;67.97
11692;BME280;33659;42.672;23.354;2023-05-11T11:14:01;94609.44;;;10.95;67.57
11692;BME280;33659;42.672;23.354;2023-05-11T11:16:31;94618.16;;;10.99;67.84
11692;BME280;33659;42.672;23.354;2023-05-11T11:19:36;94618.06;;;10.96;67.81
11692;BME280;33659;42.672;23.354;2023-05-11T11:22:45;94614.41;;;10.88;68.14
11692;BME280;33659;42.672;23.354;2023-05-11T11:25:51;94608.03;;;10.98;68.45
11692;BME280;33659;42.672;23.354;2023-05-11T11:28:19;94609.84;;;10.85;68.35
11692;BME280;33659;42.672;23.354;2023-05-11T11:30:45;94614.31;;;10.84;68.58
11692;BME280;33659;42.672;23.354;2023-05-11T11:33:31;94599.91;;;10.78;68.77
11692;BME280;33659;42.672;23.354;2023-05-11T11:36:01;94611.22;;;10.70;69.62
11692;BME280;33659;42.672;23.354;2023-05-11T11:38:29;94618.88;;;10.88;69.32
11692;BME280;33659;42.672;23.354;2023-05-11T11:40:58;94598.50;;;11.26;67.50
11692;BME280;33659;42.672;23.354;2023-05-11T11:43:27;94610.78;;;11.13;67.55
11692;BME280;33659;42.672;23.354;2023-05-11T11:45:54;94593.47;;;11.09;68.09
11692;BME280;33659;42.672;23.354;2023-05-11T11:48:24;94574.41;;;11.08;67.59
11692;BME280;33659;42.672;23.354;2023-05-11T11:51:02;94600.13;;;11.31;67.11
11692;BME280;33659;42.672;23.354;2023-05-11T11:56:43;94587.06;;;11.19;67.88
11692;BME280;33659;42.672;23.354;2023-05-11T11:59:13;94599.38;;;11.30;67.41
11692;BME280;33659;42.672;23.354;2023-05-11T12:01:42;94595.44;;;11.24;68.01
11692;BME280;33659;42.672;23.354;2023-05-11T12:07:06;94591.66;;;10.76;69.24
11692;BME280;33659;42.672;23.354;2023-05-11T12:09:34;94599.69;;;10.71;69.50
11692;BME280;33659;42.672;23.354;2023-05-11T12:12:04;94600.81;;;10.82;68.96
11692;BME280;33659;42.672;23.354;2023-05-11T12:14:32;94598.88;;;10.92;68.76
11692;BME280;33659;42.672;23.354;2023-05-11T12:17:04;94601.63;;;10.95;68.59
11692;BME280;33659;42.672;23.354;2023-05-11T12:19:33;94603.84;;;10.84;68.81
11692;BME280;33659;42.672;23.354;2023-05-11T12:21:59;94589.25;;;10.71;69.37
11692;BME280;33659;42.672;23.354;2023-05-11T12:24:27;94589.25;;;10.71;70.13
11692;BME280;33659;42.672;23.354;2023-05-11T12:26:54;94595.59;;;10.82;69.44
11692;BME280;33659;42.672;23.354;2023-05-11T12:29:23;94589.34;;;10.75;69.36
11692;BME280;33659;42.672;23.354;2023-05-11T12:31:51;94580.69;;;10.83;69.09
11692;BME280;33659;42.672;23.354;2023-05-11T12:34:19;94577.97;;;10.92;68.38
11692;BME280;33659;42.672;23.354;2023-05-11T12:36:48;94580.16;;;10.90;68.13
11692;BME280;33659;42.672;23.354;2023-05-11T12:39:19;94556.09;;;10.96;67.79
11692;BME280;33659;42.672;23.354;2023-05-11T12:41:47;94556.19;;;10.88;68.49
11692;BME280;33659;42.672;23.354;2023-05-11T12:44:15;94538.91;;;10.95;68.32
11692;BME280;33659;42.672;23.354;2023-05-11T12:46:44;94559.47;;;10.97;68.00
11692;BME280;33659;42.672;23.354;2023-05-11T12:49:14;94552.28;;;11.06;67.93
11692;BME280;33659;42.672;23.354;2023-05-11T12:51:49;94563.84;;;11.17;67.11
11692;BME280;33659;42.672;23.354;2023-05-11T12:54:27;94554.50;;;11.28;67.05
11692;BME280;33659;42.672;23.354;2023-05-11T12:56:54;94547.75;;;11.27;66.91
11692;BME280;33659;42.672;23.354;2023-05-11T12:59:28;94541.22;;;11.09;67.49
11692;BME280;33659;42.672;23.354;2023-05-11T13:02:11;94542.47;;;10.91;68.03
11692;BME280;33659;42.672;23.354;2023-05-11T13:04:39;94541.78;;;10.81;67.72
11692;BME280;33659;42.672;23.354;2023-05-11T13:07:07;94541.16;;;10.84;68.42
11692;BME280;33659;42.672;23.354;2023-05-11T13:09:34;94528.72;;;10.81;68.05
11692;BME280;33659;42.672;23.354;2023-05-11T13:12:12;94525.28;;;10.90;67.90